N511 LSZS-LOWI

Flight info

Callsign N511
Flight time 0h 28m
Altitude 11500
Route RONAG DCT BILDU
Aircraft DC3/M-SDF/S

Departure

Time 2026-04-22 08:42
Airport Engadin Airport (LSZS)

Arrival

Time 2026-04-22 09:10
Airport Innsbruck Airport (LOWI)
Time Latitude Longitude Altitude Speed Heading
2026-04-22 08:29 46.53133 9.87985 5582 ft 0 kts 208°
2026-04-22 08:36 46.53132 9.87985 5589 ft 0 kts 208°
2026-04-22 08:37 46.53107 9.87981 5591 ft 6 kts 190°
2026-04-22 08:37 46.53057 9.87946 5592 ft 8 kts 210°
2026-04-22 08:37 46.53005 9.87948 5592 ft 7 kts 147°
2026-04-22 08:37 46.52977 9.88005 5591 ft 5 kts 114°
2026-04-22 08:38 46.52947 9.88089 5590 ft 6 kts 133°
2026-04-22 08:38 46.52911 9.88117 5590 ft 6 kts 210°
2026-04-22 08:38 46.52862 9.88079 5592 ft 14 kts 210°
2026-04-22 08:38 46.52775 9.88011 5594 ft 15 kts 213°
2026-04-22 08:39 46.52724 9.87929 5596 ft 2 kts 274°
2026-04-22 08:39 46.52724 9.87915 5596 ft 2 kts 271°
2026-04-22 08:39 46.52731 9.87848 5598 ft 7 kts 322°
2026-04-22 08:39 46.52752 9.87850 5598 ft 0 kts 25°
2026-04-22 08:40 46.52755 9.87852 5598 ft 5 kts 25°
2026-04-22 08:40 46.52893 9.87961 5594 ft 39 kts 31°
2026-04-22 08:40 46.53154 9.88262 5607 ft 52 kts 56°
2026-04-22 08:41 46.53409 9.88660 5707 ft 54 kts
2026-04-22 08:41 46.53796 9.88815 5821 ft 64 kts 16°
2026-04-22 08:41 46.54253 9.89072 5971 ft 74 kts 14°
2026-04-22 08:41 46.54767 9.89330 6177 ft 81 kts 25°
2026-04-22 08:42 46.55302 9.89852 6333 ft 99 kts 43°
2026-04-22 08:42 46.55765 9.90636 6640 ft 102 kts 52°
2026-04-22 08:42 46.56255 9.91454 6881 ft 113 kts 50°
2026-04-22 08:42 46.56810 9.92379 7116 ft 123 kts 49°
2026-04-22 08:43 46.57371 9.93326 7472 ft 123 kts 48°
2026-04-22 08:43 46.57928 9.94291 7851 ft 121 kts 52°
2026-04-22 08:43 46.58438 9.95243 8238 ft 117 kts 51°
2026-04-22 08:43 46.58940 9.96197 8567 ft 118 kts 51°
2026-04-22 08:44 46.59457 9.97180 8879 ft 121 kts 51°
2026-04-22 08:44 46.59980 9.98190 9193 ft 123 kts 51°
2026-04-22 08:44 46.60525 9.99242 9404 ft 132 kts 51°
2026-04-22 08:44 46.61100 10.00353 9590 ft 141 kts 51°
2026-04-22 08:45 46.61718 10.01545 9782 ft 147 kts 51°
2026-04-22 08:45 46.62350 10.02770 10042 ft 148 kts 51°
2026-04-22 08:45 46.62973 10.03983 10309 ft 147 kts 51°
2026-04-22 08:45 46.63602 10.05188 10570 ft 147 kts 51°
2026-04-22 08:46 46.64230 10.06392 10818 ft 147 kts 51°
2026-04-22 08:46 46.64852 10.07592 11091 ft 146 kts 51°
2026-04-22 08:46 46.65481 10.08793 11349 ft 146 kts 50°
2026-04-22 08:46 46.66150 10.09981 11428 ft 156 kts 42°
2026-04-22 08:47 46.66993 10.11106 11447 ft 167 kts 41°
2026-04-22 08:47 46.67898 10.12301 11449 ft 177 kts 41°
2026-04-22 08:47 46.68837 10.13543 11416 ft 180 kts 41°
2026-04-22 08:47 46.69768 10.14775 11424 ft 178 kts 41°
2026-04-22 08:48 46.70695 10.16011 11422 ft 176 kts 43°
2026-04-22 08:48 46.71447 10.17457 11420 ft 175 kts 52°
2026-04-22 08:48 46.72139 10.18926 11419 ft 175 kts 53°
2026-04-22 08:48 46.72827 10.20397 11412 ft 175 kts 54°
2026-04-22 08:49 46.73528 10.21892 11413 ft 173 kts 54°
2026-04-22 08:49 46.74212 10.23363 11409 ft 173 kts 54°
2026-04-22 08:49 46.74898 10.24821 11410 ft 172 kts 53°
2026-04-22 08:49 46.75578 10.26279 11408 ft 172 kts 54°
2026-04-22 08:50 46.76256 10.27737 11402 ft 172 kts 54°
2026-04-22 08:50 46.76933 10.29183 11407 ft 171 kts 54°
2026-04-22 08:50 46.77616 10.30644 11407 ft 171 kts 54°
2026-04-22 08:50 46.78292 10.32103 11404 ft 171 kts 54°
2026-04-22 08:51 46.78969 10.33552 11405 ft 171 kts 54°
2026-04-22 08:51 46.79647 10.34997 11392 ft 172 kts 54°
2026-04-22 08:51 46.80385 10.36460 11306 ft 175 kts 45°
2026-04-22 08:51 46.81294 10.37661 11302 ft 174 kts 39°
2026-04-22 08:52 46.82224 10.38792 11303 ft 173 kts 39°
2026-04-22 08:52 46.83165 10.39940 11303 ft 172 kts 39°
2026-04-22 08:52 46.84088 10.41072 11305 ft 172 kts 39°
2026-04-22 08:52 46.85016 10.42208 11304 ft 171 kts 39°
2026-04-22 08:53 46.85934 10.43330 11306 ft 171 kts 39°
2026-04-22 08:53 46.86863 10.44470 11307 ft 171 kts 39°
2026-04-22 08:53 46.87785 10.45597 11309 ft 171 kts 39°
2026-04-22 08:53 46.88704 10.46724 11308 ft 171 kts 39°
2026-04-22 08:54 46.89653 10.47823 11309 ft 170 kts 37°
2026-04-22 08:54 46.90615 10.48913 11306 ft 170 kts 37°
2026-04-22 08:54 46.91565 10.49991 11304 ft 171 kts 37°
2026-04-22 08:54 46.92537 10.51093 11304 ft 171 kts 37°
2026-04-22 08:55 46.93504 10.52196 11305 ft 170 kts 37°
2026-04-22 08:55 46.94481 10.53214 11307 ft 170 kts 33°
2026-04-22 08:55 46.95491 10.54198 11311 ft 170 kts 33°
2026-04-22 08:55 46.96495 10.55170 11311 ft 170 kts 33°
2026-04-22 08:56 46.97508 10.56155 11310 ft 170 kts 33°
2026-04-22 08:56 46.98509 10.57126 11312 ft 170 kts 33°
2026-04-22 08:56 46.99517 10.58104 11311 ft 170 kts 33°
2026-04-22 08:56 47.00530 10.59085 11309 ft 171 kts 33°
2026-04-22 08:57 47.01533 10.60060 11312 ft 171 kts 33°
2026-04-22 08:57 47.02535 10.61036 11311 ft 171 kts 33°
2026-04-22 08:57 47.03544 10.62017 11315 ft 171 kts 32°
2026-04-22 08:57 47.04552 10.63002 11315 ft 171 kts 33°
2026-04-22 08:58 47.05558 10.63983 11324 ft 170 kts 33°
2026-04-22 08:58 47.06561 10.64960 11330 ft 170 kts 33°
2026-04-22 08:58 47.07552 10.65928 11338 ft 169 kts 33°
2026-04-22 08:58 47.08553 10.66907 11345 ft 169 kts 33°
2026-04-22 08:59 47.09550 10.67886 11352 ft 169 kts 33°
2026-04-22 08:59 47.10545 10.68866 11361 ft 168 kts 33°
2026-04-22 08:59 47.11540 10.69843 11368 ft 168 kts 33°
2026-04-22 08:59 47.12527 10.70811 11378 ft 168 kts 33°
2026-04-22 09:00 47.13520 10.71791 11388 ft 168 kts 33°
2026-04-22 09:00 47.14534 10.72789 11178 ft 180 kts 33°
2026-04-22 09:00 47.15611 10.73843 10940 ft 186 kts 33°
2026-04-22 09:00 47.16669 10.75054 10682 ft 191 kts 40°
2026-04-22 09:01 47.17696 10.76363 10452 ft 194 kts 40°
2026-04-22 09:01 47.18740 10.77698 10210 ft 197 kts 40°
2026-04-22 09:01 47.19677 10.79230 9947 ft 199 kts 51°
2026-04-22 09:01 47.20546 10.80874 9703 ft 201 kts 51°
2026-04-22 09:02 47.21424 10.82535 9399 ft 205 kts 51°
2026-04-22 09:02 47.22322 10.84220 9065 ft 208 kts 51°
2026-04-22 09:02 47.23255 10.85912 8673 ft 212 kts 50°
2026-04-22 09:02 47.24203 10.87631 8326 ft 212 kts 51°
2026-04-22 09:03 47.25082 10.89436 7794 ft 215 kts 57°
2026-04-22 09:03 47.25822 10.91370 7316 ft 215 kts 62°
2026-04-22 09:03 47.26528 10.93336 6786 ft 212 kts 62°
2026-04-22 09:03 47.27111 10.95349 6269 ft 208 kts 70°
2026-04-22 09:04 47.27623 10.97307 5740 ft 201 kts 65°
2026-04-22 09:04 47.28191 10.99180 5247 ft 196 kts 66°
2026-04-22 09:04 47.28717 11.01056 4724 ft 195 kts 67°
2026-04-22 09:04 47.29228 11.02912 4221 ft 192 kts 67°
2026-04-22 09:05 47.29741 11.04711 3718 ft 188 kts 66°
2026-04-22 09:05 47.30235 11.06473 3404 ft 180 kts 68°
2026-04-22 09:05 47.30389 11.08281 3390 ft 175 kts 93°
2026-04-22 09:05 47.30200 11.10048 3397 ft 172 kts 103°
2026-04-22 09:06 47.29847 11.11740 3423 ft 168 kts 104°
2026-04-22 09:06 47.29431 11.13342 3420 ft 165 kts 115°
2026-04-22 09:06 47.28897 11.14855 3384 ft 161 kts 113°
2026-04-22 09:06 47.28453 11.16406 3423 ft 164 kts 109°
2026-04-22 09:07 47.28007 11.18035 3434 ft 170 kts 109°
2026-04-22 09:07 47.27488 11.19686 3423 ft 179 kts 118°
2026-04-22 09:07 47.26835 11.21284 3395 ft 178 kts 118°
2026-04-22 09:07 47.26197 11.22839 3368 ft 171 kts 117°
2026-04-22 09:08 47.25607 11.24285 3338 ft 148 kts 118°
2026-04-22 09:08 47.25211 11.25569 3166 ft 127 kts 100°
2026-04-22 09:08 47.25233 11.26761 2971 ft 108 kts 79°
2026-04-22 09:08 47.25356 11.27821 2826 ft 99 kts 79°
2026-04-22 09:09 47.25465 11.28839 2680 ft 99 kts 83°
2026-04-22 09:09 47.25555 11.29872 2585 ft 99 kts 88°
2026-04-22 09:09 47.25647 11.30917 2469 ft 103 kts 82°
2026-04-22 09:09 47.25754 11.31807 2236 ft 72 kts 81°
2026-04-22 09:10 47.25814 11.32522 2103 ft 70 kts 80°
2026-04-22 09:10 47.25898 11.33266 2001 ft 72 kts 85°
2026-04-22 09:10 47.25976 11.33977 1927 ft 64 kts 89°
2026-04-22 09:10 47.26031 11.34493 1903 ft 31 kts 79°
2026-04-22 09:11 47.26059 11.34819 1900 ft 35 kts 78°
2026-04-22 09:11 47.26103 11.35158 1897 ft 21 kts 90°
2026-04-22 09:11 47.26069 11.35250 1897 ft 13 kts 133°
2026-04-22 09:11 47.25995 11.35279 1897 ft 16 kts 173°
2026-04-22 09:12 47.25934 11.35323 1897 ft 8 kts 114°
2026-04-22 09:12 47.25904 11.35379 1896 ft 7 kts 150°
2026-04-22 09:12 47.25876 11.35383 1896 ft 0 kts 259°
2026-04-22 09:12 47.25876 11.35382 1896 ft 0 kts 259°